sensor_id;sensor_type;location;lat;lon;timestamp;pressure;altitude;pressure_sealevel;temperature;humidity
15604;BME280;7902;49.042;9.092;2022-09-09T00:00:13;98686.19;;;21.12;53.20
15604;BME280;7902;49.042;9.092;2022-09-09T00:02:45;98684.25;;;21.06;53.75
15604;BME280;7902;49.042;9.092;2022-09-09T00:07:51;98670.94;;;20.91;53.84
15604;BME280;7902;49.042;9.092;2022-09-09T00:10:23;98673.81;;;20.89;53.89
15604;BME280;7902;49.042;9.092;2022-09-09T00:13:02;98669.22;;;20.83;54.03
15604;BME280;7902;49.042;9.092;2022-09-09T00:15:48;98669.88;;;20.85;54.31
15604;BME280;7902;49.042;9.092;2022-09-09T00:18:25;98669.31;;;20.90;54.36
15604;BME280;7902;49.042;9.092;2022-09-09T00:20:58;98672.59;;;20.92;53.80
15604;BME280;7902;49.042;9.092;2022-09-09T00:23:31;98663.84;;;20.98;54.07
15604;BME280;7902;49.042;9.092;2022-09-09T00:26:12;98673.41;;;21.07;53.40
15604;BME280;7902;49.042;9.092;2022-09-09T00:31:33;98667.66;;;20.89;54.53
15604;BME280;7902;49.042;9.092;2022-09-09T00:34:05;98664.81;;;20.90;54.29
15604;BME280;7902;49.042;9.092;2022-09-09T00:36:35;98668.00;;;20.86;54.19
15604;BME280;7902;49.042;9.092;2022-09-09T00:39:03;98668.94;;;20.93;53.92
15604;BME280;7902;49.042;9.092;2022-09-09T00:44:38;98663.97;;;20.90;54.17
15604;BME280;7902;49.042;9.092;2022-09-09T00:47:39;98669.94;;;20.92;54.13
15604;BME280;7902;49.042;9.092;2022-09-09T00:55:17;98681.63;;;20.91;53.99
15604;BME280;7902;49.042;9.092;2022-09-09T00:57:50;98675.63;;;21.03;53.74
15604;BME280;7902;49.042;9.092;2022-09-09T01:00:21;98670.59;;;20.94;53.68
15604;BME280;7902;49.042;9.092;2022-09-09T01:09:14;98676.28;;;20.91;54.00
15604;BME280;7902;49.042;9.092;2022-09-09T01:17:05;98673.88;;;20.96;53.89
15604;BME280;7902;49.042;9.092;2022-09-09T01:19:45;98668.34;;;20.97;53.86
15604;BME280;7902;49.042;9.092;2022-09-09T01:27:48;98669.63;;;21.01;54.17
15604;BME280;7902;49.042;9.092;2022-09-09T01:30:17;98664.03;;;20.96;54.01
15604;BME280;7902;49.042;9.092;2022-09-09T01:32:49;98674.25;;;20.93;53.96
15604;BME280;7902;49.042;9.092;2022-09-09T01:37:55;98676.94;;;20.93;54.54
15604;BME280;7902;49.042;9.092;2022-09-09T01:40:22;98675.91;;;20.94;54.00
15604;BME280;7902;49.042;9.092;2022-09-09T01:42:48;98686.22;;;20.97;53.94
15604;BME280;7902;49.042;9.092;2022-09-09T01:45:14;98684.19;;;20.99;54.15
15604;BME280;7902;49.042;9.092;2022-09-09T01:47:41;98687.44;;;20.94;53.82
15604;BME280;7902;49.042;9.092;2022-09-09T01:50:10;98686.41;;;20.95;53.80
15604;BME280;7902;49.042;9.092;2022-09-09T01:52:38;98684.38;;;20.97;54.01
15604;BME280;7902;49.042;9.092;2022-09-09T01:55:05;98686.94;;;20.91;53.77
15604;BME280;7902;49.042;9.092;2022-09-09T01:57:38;98692.69;;;20.88;54.19
15604;BME280;7902;49.042;9.092;2022-09-09T02:00:12;98683.66;;;20.89;53.64
15604;BME280;7902;49.042;9.092;2022-09-09T02:05:30;98685.31;;;20.90;54.12
15604;BME280;7902;49.042;9.092;2022-09-09T02:08:07;98689.72;;;20.83;54.53
15604;BME280;7902;49.042;9.092;2022-09-09T02:10:45;98682.66;;;20.90;54.56
15604;BME280;7902;49.042;9.092;2022-09-09T02:13:14;98682.28;;;20.93;54.96
15604;BME280;7902;49.042;9.092;2022-09-09T02:16:03;98672.47;;;21.00;54.69
15604;BME280;7902;49.042;9.092;2022-09-09T02:18:35;98660.34;;;20.97;54.91
15604;BME280;7902;49.042;9.092;2022-09-09T02:21:05;98652.00;;;20.86;55.52
15604;BME280;7902;49.042;9.092;2022-09-09T02:23:33;98657.31;;;20.86;55.84
15604;BME280;7902;49.042;9.092;2022-09-09T02:26:01;98668.00;;;20.86;55.77
15604;BME280;7902;49.042;9.092;2022-09-09T02:28:31;98682.66;;;20.90;55.67
15604;BME280;7902;49.042;9.092;2022-09-09T02:30:58;98693.03;;;20.99;55.59
15604;BME280;7902;49.042;9.092;2022-09-09T02:33:27;98698.72;;;20.96;55.50
15604;BME280;7902;49.042;9.092;2022-09-09T02:35:56;98694.03;;;20.98;56.02
15604;BME280;7902;49.042;9.092;2022-09-09T02:38:28;98686.94;;;20.91;56.34
15604;BME280;7902;49.042;9.092;2022-09-09T02:40:55;98689.19;;;20.87;56.48
15604;BME280;7902;49.042;9.092;2022-09-09T02:43:21;98675.84;;;20.87;56.26
15604;BME280;7902;49.042;9.092;2022-09-09T02:49:03;98658.53;;;20.83;56.12
15604;BME280;7902;49.042;9.092;2022-09-09T02:52:05;98658.72;;;20.82;56.14
15604;BME280;7902;49.042;9.092;2022-09-09T02:54:34;98665.34;;;20.86;56.68
15604;BME280;7902;49.042;9.092;2022-09-09T02:57:08;98648.97;;;20.89;56.05
15604;BME280;7902;49.042;9.092;2022-09-09T02:59:36;98648.78;;;20.90;56.29
15604;BME280;7902;49.042;9.092;2022-09-09T03:02:02;98654.88;;;20.84;56.30
15604;BME280;7902;49.042;9.092;2022-09-09T03:04:28;98654.59;;;20.79;56.41
15604;BME280;7902;49.042;9.092;2022-09-09T03:06:58;98663.63;;;20.78;56.33
15604;BME280;7902;49.042;9.092;2022-09-09T03:09:24;98664.81;;;20.76;56.41
15604;BME280;7902;49.042;9.092;2022-09-09T03:11:51;98664.81;;;20.76;56.67
15604;BME280;7902;49.042;9.092;2022-09-09T03:14:17;98664.63;;;20.77;56.32
15604;BME280;7902;49.042;9.092;2022-09-09T03:16:47;98659.50;;;20.76;56.34
15604;BME280;7902;49.042;9.092;2022-09-09T03:19:13;98667.00;;;20.72;56.59
15604;BME280;7902;49.042;9.092;2022-09-09T03:21:39;98654.31;;;20.74;56.52
15604;BME280;7902;49.042;9.092;2022-09-09T03:24:05;98663.53;;;20.72;56.08
15604;BME280;7902;49.042;9.092;2022-09-09T03:26:32;98660.94;;;20.78;56.59
15604;BME280;7902;49.042;9.092;2022-09-09T03:28:58;98650.25;;;20.78;56.79
15604;BME280;7902;49.042;9.092;2022-09-09T03:31:26;98646.16;;;20.76;56.46
15604;BME280;7902;49.042;9.092;2022-09-09T03:33:57;98648.06;;;20.67;57.34
15604;BME280;7902;49.042;9.092;2022-09-09T03:36:25;98651.22;;;20.71;56.77
15604;BME280;7902;49.042;9.092;2022-09-09T03:38:52;98651.84;;;20.73;56.95
15604;BME280;7902;49.042;9.092;2022-09-09T03:41:21;98659.41;;;20.69;56.67
15604;BME280;7902;49.042;9.092;2022-09-09T03:43:53;98660.50;;;20.60;56.85
15604;BME280;7902;49.042;9.092;2022-09-09T03:46:20;98656.56;;;20.56;57.22
15604;BME280;7902;49.042;9.092;2022-09-09T03:48:46;98655.56;;;20.57;57.57
15604;BME280;7902;49.042;9.092;2022-09-09T03:51:12;98657.28;;;20.65;57.09
15604;BME280;7902;49.042;9.092;2022-09-09T03:53:39;98642.81;;;20.74;56.51
15604;BME280;7902;49.042;9.092;2022-09-09T03:56:06;98650.41;;;20.55;57.40
15604;BME280;7902;49.042;9.092;2022-09-09T03:58:33;98654.72;;;20.56;57.34
15604;BME280;7902;49.042;9.092;2022-09-09T04:01:02;98655.84;;;20.47;57.84
15604;BME280;7902;49.042;9.092;2022-09-09T04:03:30;98659.06;;;20.43;57.51
15604;BME280;7902;49.042;9.092;2022-09-09T04:05:58;98657.66;;;20.47;57.26
15604;BME280;7902;49.042;9.092;2022-09-09T04:08:25;98664.47;;;20.49;57.72
15604;BME280;7902;49.042;9.092;2022-09-09T04:10:51;98654.16;;;20.46;57.24
15604;BME280;7902;49.042;9.092;2022-09-09T04:13:18;98657.75;;;20.53;57.22
15604;BME280;7902;49.042;9.092;2022-09-09T04:15:57;98654.44;;;20.51;57.11
15604;BME280;7902;49.042;9.092;2022-09-09T04:18:23;98662.25;;;20.68;56.49
15604;BME280;7902;49.042;9.092;2022-09-09T04:20:50;98660.69;;;20.58;56.69
15604;BME280;7902;49.042;9.092;2022-09-09T04:23:17;98667.84;;;20.58;56.17
15604;BME280;7902;49.042;9.092;2022-09-09T04:25:46;98667.22;;;20.56;56.22
15604;BME280;7902;49.042;9.092;2022-09-09T04:28:16;98664.91;;;20.68;56.32
15604;BME280;7902;49.042;9.092;2022-09-09T04:30:43;98671.06;;;20.68;56.22
15604;BME280;7902;49.042;9.092;2022-09-09T04:33:09;98670.19;;;20.61;55.97
15604;BME280;7902;49.042;9.092;2022-09-09T04:35:36;98670.53;;;20.58;56.11
15604;BME280;7902;49.042;9.092;2022-09-09T04:38:04;98678.72;;;20.56;56.62
15604;BME280;7902;49.042;9.092;2022-09-09T04:40:31;98680.91;;;20.53;56.52
15604;BME280;7902;49.042;9.092;2022-09-09T04:43:01;98674.41;;;20.55;56.63
15604;BME280;7902;49.042;9.092;2022-09-09T04:45:29;98684.69;;;20.44;56.36
15604;BME280;7902;49.042;9.092;2022-09-09T04:47:56;98677.78;;;20.49;56.51
15604;BME280;7902;49.042;9.092;2022-09-09T04:50:22;98678.91;;;20.55;56.92
15604;BME280;7902;49.042;9.092;2022-09-09T04:52:48;98686.47;;;20.51;56.54
15604;BME280;7902;49.042;9.092;2022-09-09T04:55:14;98690.69;;;20.46;56.65
15604;BME280;7902;49.042;9.092;2022-09-09T04:57:40;98676.69;;;20.44;57.23
15604;BME280;7902;49.042;9.092;2022-09-09T05:00:07;98687.00;;;20.47;57.64
15604;BME280;7902;49.042;9.092;2022-09-09T05:02:37;98689.41;;;20.42;57.34
15604;BME280;7902;49.042;9.092;2022-09-09T05:05:03;98694.06;;;20.40;57.47
15604;BME280;7902;49.042;9.092;2022-09-09T05:07:29;98688.13;;;20.38;57.19
15604;BME280;7902;49.042;9.092;2022-09-09T05:09:57;98699.66;;;20.30;57.45
15604;BME280;7902;49.042;9.092;2022-09-09T05:12:23;98698.34;;;20.26;57.71
15604;BME280;7902;49.042;9.092;2022-09-09T05:14:52;98695.84;;;20.33;57.36
15604;BME280;7902;49.042;9.092;2022-09-09T05:17:18;98703.50;;;20.28;57.12
15604;BME280;7902;49.042;9.092;2022-09-09T05:19:44;98708.63;;;20.37;56.80
15604;BME280;7902;49.042;9.092;2022-09-09T05:22:10;98711.63;;;20.34;57.16
15604;BME280;7902;49.042;9.092;2022-09-09T05:24:37;98709.41;;;20.23;57.47
15604;BME280;7902;49.042;9.092;2022-09-09T05:27:04;98711.06;;;20.24;57.21
15604;BME280;7902;49.042;9.092;2022-09-09T05:29:32;98714.00;;;20.29;57.00
15604;BME280;7902;49.042;9.092;2022-09-09T05:32:01;98717.84;;;20.27;57.40
15604;BME280;7902;49.042;9.092;2022-09-09T05:34:27;98724.38;;;20.24;57.22
15604;BME280;7902;49.042;9.092;2022-09-09T05:36:53;98727.78;;;20.18;57.58
15604;BME280;7902;49.042;9.092;2022-09-09T05:39:19;98720.88;;;20.24;56.57
15604;BME280;7902;49.042;9.092;2022-09-09T05:41:47;98724.94;;;20.20;56.99
15604;BME280;7902;49.042;9.092;2022-09-09T05:44:13;98726.47;;;20.14;57.24
15604;BME280;7902;49.042;9.092;2022-09-09T05:46:39;98725.56;;;20.22;57.58
15604;BME280;7902;49.042;9.092;2022-09-09T05:49:05;98718.84;;;20.26;56.87
15604;BME280;7902;49.042;9.092;2022-09-09T05:51:31;98721.84;;;20.31;56.63
15604;BME280;7902;49.042;9.092;2022-09-09T05:53:58;98724.41;;;20.39;56.26
15604;BME280;7902;49.042;9.092;2022-09-09T05:56:28;98724.91;;;20.42;56.21
15604;BME280;7902;49.042;9.092;2022-09-09T05:58:55;98715.50;;;20.46;56.45
15604;BME280;7902;49.042;9.092;2022-09-09T06:01:26;98721.69;;;20.47;56.48
15604;BME280;7902;49.042;9.092;2022-09-09T06:03:52;98720.19;;;20.44;56.42
15604;BME280;7902;49.042;9.092;2022-09-09T06:06:21;98719.91;;;20.39;56.53
15604;BME280;7902;49.042;9.092;2022-09-09T06:08:49;98720.47;;;20.49;56.06
15604;BME280;7902;49.042;9.092;2022-09-09T06:11:18;98729.31;;;20.50;55.98
15604;BME280;7902;49.042;9.092;2022-09-09T06:13:44;98716.34;;;20.47;56.03
15604;BME280;7902;49.042;9.092;2022-09-09T06:16:13;98716.69;;;20.44;56.29
15604;BME280;7902;49.042;9.092;2022-09-09T06:18:40;98718.34;;;20.45;55.54
15604;BME280;7902;49.042;9.092;2022-09-09T06:21:11;98716.81;;;20.50;56.06
15604;BME280;7902;49.042;9.092;2022-09-09T06:23:40;98720.75;;;20.54;56.15
15604;BME280;7902;49.042;9.092;2022-09-09T06:26:12;98720.75;;;20.54;55.57
15604;BME280;7902;49.042;9.092;2022-09-09T06:28:39;98726.00;;;20.63;55.85
15604;BME280;7902;49.042;9.092;2022-09-09T06:31:10;98722.69;;;20.61;55.59
15604;BME280;7902;49.042;9.092;2022-09-09T06:33:38;98730.97;;;20.66;55.64
15604;BME280;7902;49.042;9.092;2022-09-09T06:36:12;98727.19;;;20.75;55.07
15604;BME280;7902;49.042;9.092;2022-09-09T06:38:38;98724.81;;;20.80;54.83
15604;BME280;7902;49.042;9.092;2022-09-09T06:41:04;98733.44;;;20.82;54.92
15604;BME280;7902;49.042;9.092;2022-09-09T06:43:31;98734.53;;;20.87;54.92
15604;BME280;7902;49.042;9.092;2022-09-09T06:45:59;98730.78;;;20.82;54.87
15604;BME280;7902;49.042;9.092;2022-09-09T06:48:27;98741.09;;;20.85;54.45
15604;BME280;7902;49.042;9.092;2022-09-09T06:53:28;98737.94;;;20.96;54.29
15604;BME280;7902;49.042;9.092;2022-09-09T06:55:54;98740.25;;;20.99;53.77
15604;BME280;7902;49.042;9.092;2022-09-09T06:58:20;98730.13;;;20.94;54.44
15604;BME280;7902;49.042;9.092;2022-09-09T07:00:48;98729.38;;;21.00;54.17
15604;BME280;7902;49.042;9.092;2022-09-09T07:03:13;98728.81;;;21.05;54.23
15604;BME280;7902;49.042;9.092;2022-09-09T07:05:39;98738.13;;;21.09;54.28
15604;BME280;7902;49.042;9.092;2022-09-09T07:08:05;98738.94;;;21.10;54.18
15604;BME280;7902;49.042;9.092;2022-09-09T07:10:31;98741.06;;;21.14;54.26
15604;BME280;7902;49.042;9.092;2022-09-09T07:12:59;98737.47;;;21.22;53.51
15604;BME280;7902;49.042;9.092;2022-09-09T07:15:27;98746.31;;;21.22;53.98
15604;BME280;7902;49.042;9.092;2022-09-09T07:17:53;98737.53;;;21.28;53.41
15604;BME280;7902;49.042;9.092;2022-09-09T07:20:19;98738.00;;;21.32;53.75
15604;BME280;7902;49.042;9.092;2022-09-09T07:22:45;98748.31;;;21.35;53.82
15604;BME280;7902;49.042;9.092;2022-09-09T07:25:11;98746.66;;;21.34;53.66
15604;BME280;7902;49.042;9.092;2022-09-09T07:27:37;98747.63;;;21.48;53.81
15604;BME280;7902;49.042;9.092;2022-09-09T07:30:04;98750.38;;;21.54;53.55
15604;BME280;7902;49.042;9.092;2022-09-09T07:32:30;98748.84;;;21.45;53.73
15604;BME280;7902;49.042;9.092;2022-09-09T07:34:56;98741.28;;;21.70;52.95
15604;BME280;7902;49.042;9.092;2022-09-09T07:37:23;98745.41;;;21.72;53.09
15604;BME280;7902;49.042;9.092;2022-09-09T07:39:50;98752.59;;;21.72;53.25
15604;BME280;7902;49.042;9.092;2022-09-09T07:42:17;98746.66;;;21.70;52.93
15604;BME280;7902;49.042;9.092;2022-09-09T07:44:46;98743.31;;;21.68;53.63
15604;BME280;7902;49.042;9.092;2022-09-09T07:47:12;98740.06;;;21.72;53.09
15604;BME280;7902;49.042;9.092;2022-09-09T07:49:40;98743.75;;;21.71;53.12
15604;BME280;7902;49.042;9.092;2022-09-09T07:52:07;98748.16;;;21.79;53.05
15604;BME280;7902;49.042;9.092;2022-09-09T07:54:33;98753.69;;;21.77;53.12
15604;BME280;7902;49.042;9.092;2022-09-09T07:56:58;98765.28;;;21.84;52.80
15604;BME280;7902;49.042;9.092;2022-09-09T07:59:24;98760.81;;;21.92;52.61
15604;BME280;7902;49.042;9.092;2022-09-09T08:01:52;98760.56;;;21.86;53.10
15604;BME280;7902;49.042;9.092;2022-09-09T08:04:21;98759.69;;;22.01;52.69
15604;BME280;7902;49.042;9.092;2022-09-09T08:06:53;98762.19;;;22.02;52.59
15604;BME280;7902;49.042;9.092;2022-09-09T08:09:20;98756.44;;;22.05;52.71
15604;BME280;7902;49.042;9.092;2022-09-09T08:11:47;98764.34;;;22.13;52.31
15604;BME280;7902;49.042;9.092;2022-09-09T08:14:13;98754.84;;;22.11;52.68
15604;BME280;7902;49.042;9.092;2022-09-09T08:16:42;98744.00;;;22.19;51.99
15604;BME280;7902;49.042;9.092;2022-09-09T08:19:08;98738.91;;;22.24;52.38
15604;BME280;7902;49.042;9.092;2022-09-09T08:24:02;98748.66;;;22.31;52.47
15604;BME280;7902;49.042;9.092;2022-09-09T08:29:05;98749.91;;;22.36;51.99
15604;BME280;7902;49.042;9.092;2022-09-09T08:31:41;98757.16;;;22.42;51.79
15604;BME280;7902;49.042;9.092;2022-09-09T08:34:08;98748.94;;;22.43;51.61
15604;BME280;7902;49.042;9.092;2022-09-09T08:36:37;98743.66;;;22.50;51.78
15604;BME280;7902;49.042;9.092;2022-09-09T08:39:06;98745.28;;;22.51;51.73
15604;BME280;7902;49.042;9.092;2022-09-09T08:47:31;98737.63;;;22.75;51.20
15604;BME280;7902;49.042;9.092;2022-09-09T08:50:35;98749.84;;;22.85;50.95
15604;BME280;7902;49.042;9.092;2022-09-09T08:55:45;98736.69;;;22.83;50.79
15604;BME280;7902;49.042;9.092;2022-09-09T08:58:16;98732.41;;;22.95;50.42
15604;BME280;7902;49.042;9.092;2022-09-09T09:06:20;98746.44;;;23.04;49.95
15604;BME280;7902;49.042;9.092;2022-09-09T09:08:58;98748.09;;;23.05;50.32
15604;BME280;7902;49.042;9.092;2022-09-09T09:11:25;98742.78;;;23.18;49.86
15604;BME280;7902;49.042;9.092;2022-09-09T09:13:58;98747.44;;;23.44;49.27
15604;BME280;7902;49.042;9.092;2022-09-09T09:16:41;98742.88;;;23.38;48.99
15604;BME280;7902;49.042;9.092;2022-09-09T09:19:15;98734.59;;;23.33;48.22
15604;BME280;7902;49.042;9.092;2022-09-09T09:21:44;98736.97;;;23.62;47.73
15604;BME280;7902;49.042;9.092;2022-09-09T09:24:31;98726.88;;;23.64;47.98
15604;BME280;7902;49.042;9.092;2022-09-09T09:27:12;98737.19;;;23.74;47.66
15604;BME280;7902;49.042;9.092;2022-09-09T09:29:39;98733.88;;;23.65;47.93
15604;BME280;7902;49.042;9.092;2022-09-09T09:32:11;98732.28;;;23.77;47.75
15604;BME280;7902;49.042;9.092;2022-09-09T09:34:39;98737.97;;;23.48;48.48
15604;BME280;7902;49.042;9.092;2022-09-09T09:37:32;98753.22;;;23.47;50.20
15604;BME280;7902;49.042;9.092;2022-09-09T09:40:15;98752.66;;;23.17;56.87
15604;BME280;7902;49.042;9.092;2022-09-09T09:42:53;98756.81;;;23.20;55.58
15604;BME280;7902;49.042;9.092;2022-09-09T09:45:32;98747.50;;;23.09;56.22
15604;BME280;7902;49.042;9.092;2022-09-09T09:48:02;98746.25;;;23.05;58.52
15604;BME280;7902;49.042;9.092;2022-09-09T09:50:29;98740.63;;;22.94;57.06
15604;BME280;7902;49.042;9.092;2022-09-09T09:52:57;98743.53;;;22.99;57.39
15604;BME280;7902;49.042;9.092;2022-09-09T09:55:23;98739.00;;;22.99;56.14
15604;BME280;7902;49.042;9.092;2022-09-09T09:57:50;98736.31;;;22.99;55.99
15604;BME280;7902;49.042;9.092;2022-09-09T10:00:19;98729.66;;;22.82;56.61
15604;BME280;7902;49.042;9.092;2022-09-09T10:02:47;98731.88;;;22.72;56.54
15604;BME280;7902;49.042;9.092;2022-09-09T10:07:46;98742.75;;;22.43;58.79
15604;BME280;7902;49.042;9.092;2022-09-09T10:10:20;98740.91;;;22.43;58.83
15604;BME280;7902;49.042;9.092;2022-09-09T10:13:00;98739.50;;;22.47;58.40
15604;BME280;7902;49.042;9.092;2022-09-09T10:26:19;98745.75;;;22.26;58.60
15604;BME280;7902;49.042;9.092;2022-09-09T10:32:10;98737.72;;;22.26;58.17
15604;BME280;7902;49.042;9.092;2022-09-09T10:38:18;98745.66;;;22.48;58.94
15604;BME280;7902;49.042;9.092;2022-09-09T10:46:23;98735.56;;;22.71;57.61
15604;BME280;7902;49.042;9.092;2022-09-09T10:49:00;98738.22;;;22.71;58.47
15604;BME280;7902;49.042;9.092;2022-09-09T10:54:31;98730.69;;;22.81;59.62
15604;BME280;7902;49.042;9.092;2022-09-09T10:57:03;98737.94;;;22.87;60.05
15604;BME280;7902;49.042;9.092;2022-09-09T10:59:39;98730.94;;;22.93;56.74
15604;BME280;7902;49.042;9.092;2022-09-09T11:02:36;98726.38;;;22.87;57.05
15604;BME280;7902;49.042;9.092;2022-09-09T11:08:00;98737.50;;;22.90;52.86
15604;BME280;7902;49.042;9.092;2022-09-09T11:16:39;98736.81;;;22.75;51.77
15604;BME280;7902;49.042;9.092;2022-09-09T11:19:34;98739.13;;;22.78;50.56
15604;BME280;7902;49.042;9.092;2022-09-09T11:22:17;98740.16;;;22.84;50.97
15604;BME280;7902;49.042;9.092;2022-09-09T11:24:49;98741.19;;;22.83;49.66
15604;BME280;7902;49.042;9.092;2022-09-09T11:27:37;98732.13;;;22.84;49.41
15604;BME280;7902;49.042;9.092;2022-09-09T11:30:22;98744.69;;;22.83;48.40
15604;BME280;7902;49.042;9.092;2022-09-09T11:35:33;98743.50;;;22.92;49.44
15604;BME280;7902;49.042;9.092;2022-09-09T11:41:07;98750.50;;;22.93;50.18
15604;BME280;7902;49.042;9.092;2022-09-09T11:43:43;98755.91;;;23.00;50.36
15604;BME280;7902;49.042;9.092;2022-09-09T11:46:10;98756.69;;;22.94;50.23
15604;BME280;7902;49.042;9.092;2022-09-09T11:48:39;98755.78;;;22.80;50.90
15604;BME280;7902;49.042;9.092;2022-09-09T11:51:12;98754.66;;;22.96;49.80
15604;BME280;7902;49.042;9.092;2022-09-09T11:53:53;98754.59;;;22.89;49.57
15604;BME280;7902;49.042;9.092;2022-09-09T11:56:33;98745.06;;;22.80;50.02
15604;BME280;7902;49.042;9.092;2022-09-09T11:59:03;98745.72;;;22.82;49.77
15604;BME280;7902;49.042;9.092;2022-09-09T12:04:09;98740.13;;;22.77;49.83
15604;BME280;7902;49.042;9.092;2022-09-09T12:06:51;98728.16;;;22.73;50.72
15604;BME280;7902;49.042;9.092;2022-09-09T12:09:27;98722.16;;;22.71;51.17
15604;BME280;7902;49.042;9.092;2022-09-09T12:12:05;98719.59;;;22.56;51.46
15604;BME280;7902;49.042;9.092;2022-09-09T12:14:36;98718.47;;;22.72;51.70
15604;BME280;7902;49.042;9.092;2022-09-09T12:17:22;98703.06;;;22.81;52.39
15604;BME280;7902;49.042;9.092;2022-09-09T12:20:22;98695.03;;;22.74;51.66
15604;BME280;7902;49.042;9.092;2022-09-09T12:28:18;98696.66;;;23.16;50.92
15604;BME280;7902;49.042;9.092;2022-09-09T12:31:07;98692.78;;;23.38;51.11
15604;BME280;7902;49.042;9.092;2022-09-09T12:33:39;98700.91;;;23.58;51.13
15604;BME280;7902;49.042;9.092;2022-09-09T12:36:21;98688.53;;;23.83;49.24
15604;BME280;7902;49.042;9.092;2022-09-09T12:38:48;98695.97;;;23.88;48.48
15604;BME280;7902;49.042;9.092;2022-09-09T12:41:24;98696.38;;;24.04;49.48
15604;BME280;7902;49.042;9.092;2022-09-09T12:43:50;98693.06;;;24.16;48.33
15604;BME280;7902;49.042;9.092;2022-09-09T12:46:25;98693.31;;;24.34;47.43
15604;BME280;7902;49.042;9.092;2022-09-09T12:48:54;98695.97;;;24.47;47.59
15604;BME280;7902;49.042;9.092;2022-09-09T12:51:29;98694.69;;;24.56;46.47
15604;BME280;7902;49.042;9.092;2022-09-09T12:53:57;98697.13;;;24.71;46.10
15604;BME280;7902;49.042;9.092;2022-09-09T12:56:25;98701.88;;;24.75;46.14
15604;BME280;7902;49.042;9.092;2022-09-09T12:58:53;98693.03;;;24.55;47.14
15604;BME280;7902;49.042;9.092;2022-09-09T13:03:48;98689.28;;;24.76;45.90
15604;BME280;7902;49.042;9.092;2022-09-09T13:06:20;98678.44;;;25.02;44.56
15604;BME280;7902;49.042;9.092;2022-09-09T13:08:49;98678.63;;;25.14;45.84
15604;BME280;7902;49.042;9.092;2022-09-09T13:11:20;98676.75;;;25.14;45.74
15604;BME280;7902;49.042;9.092;2022-09-09T13:13:53;98680.13;;;25.34;46.00
15604;BME280;7902;49.042;9.092;2022-09-09T13:16:26;98678.63;;;25.45;45.27
15604;BME280;7902;49.042;9.092;2022-09-09T13:18:58;98678.63;;;25.45;44.71
15604;BME280;7902;49.042;9.092;2022-09-09T13:21:33;98684.28;;;25.37;45.17
15604;BME280;7902;49.042;9.092;2022-09-09T13:24:00;98683.69;;;25.66;44.85
15604;BME280;7902;49.042;9.092;2022-09-09T13:26:29;98685.22;;;25.56;44.69
15604;BME280;7902;49.042;9.092;2022-09-09T13:29:08;98683.28;;;25.31;44.90
15604;BME280;7902;49.042;9.092;2022-09-09T13:31:40;98682.06;;;25.21;45.38
15604;BME280;7902;49.042;9.092;2022-09-09T13:34:14;98681.72;;;25.11;44.06
15604;BME280;7902;49.042;9.092;2022-09-09T13:36:40;98686.72;;;25.01;44.76
15604;BME280;7902;49.042;9.092;2022-09-09T13:39:16;98693.75;;;25.02;44.03
15604;BME280;7902;49.042;9.092;2022-09-09T13:41:45;98688.22;;;24.83;45.31
15604;BME280;7902;49.042;9.092;2022-09-09T13:44:39;98679.66;;;25.06;45.51
15604;BME280;7902;49.042;9.092;2022-09-09T13:47:21;98682.81;;;24.97;46.46
15604;BME280;7902;49.042;9.092;2022-09-09T13:49:48;98669.19;;;24.91;44.74
15604;BME280;7902;49.042;9.092;2022-09-09T13:52:17;98667.56;;;24.84;44.98
15604;BME280;7902;49.042;9.092;2022-09-09T13:54:51;98671.97;;;24.65;44.81
15604;BME280;7902;49.042;9.092;2022-09-09T13:57:23;98676.94;;;24.55;43.54
15604;BME280;7902;49.042;9.092;2022-09-09T13:59:53;98668.00;;;24.68;44.71
15604;BME280;7902;49.042;9.092;2022-09-09T14:02:20;98666.06;;;25.01;47.17
15604;BME280;7902;49.042;9.092;2022-09-09T14:04:49;98680.13;;;24.97;46.62
15604;BME280;7902;49.042;9.092;2022-09-09T14:07:17;98668.97;;;25.00;46.02
15604;BME280;7902;49.042;9.092;2022-09-09T14:09:44;98662.97;;;24.98;44.51
15604;BME280;7902;49.042;9.092;2022-09-09T14:12:11;98659.19;;;25.12;44.04
15604;BME280;7902;49.042;9.092;2022-09-09T14:14:38;98641.22;;;25.12;45.13
15604;BME280;7902;49.042;9.092;2022-09-09T14:17:04;98647.34;;;25.19;41.75
15604;BME280;7902;49.042;9.092;2022-09-09T14:19:30;98647.78;;;25.16;42.79
15604;BME280;7902;49.042;9.092;2022-09-09T14:21:59;98657.81;;;25.34;41.12
15604;BME280;7902;49.042;9.092;2022-09-09T14:24:25;98664.47;;;25.25;41.05
15604;BME280;7902;49.042;9.092;2022-09-09T14:26:51;98667.03;;;25.13;41.40
15604;BME280;7902;49.042;9.092;2022-09-09T14:29:17;98657.78;;;25.03;41.83
15604;BME280;7902;49.042;9.092;2022-09-09T14:31:43;98667.50;;;25.04;41.75
15604;BME280;7902;49.042;9.092;2022-09-09T14:34:09;98666.38;;;24.67;42.76
15604;BME280;7902;49.042;9.092;2022-09-09T14:36:37;98660.53;;;24.89;42.01
15604;BME280;7902;49.042;9.092;2022-09-09T14:39:04;98669.84;;;24.74;42.67
15604;BME280;7902;49.042;9.092;2022-09-09T14:41:30;98688.06;;;24.65;43.59
15604;BME280;7902;49.042;9.092;2022-09-09T14:43:57;98690.81;;;24.32;45.97
15604;BME280;7902;49.042;9.092;2022-09-09T14:46:23;98691.03;;;24.31;46.97
15604;BME280;7902;49.042;9.092;2022-09-09T14:48:49;98684.84;;;24.24;47.07
15604;BME280;7902;49.042;9.092;2022-09-09T14:51:20;98678.63;;;24.43;46.83
15604;BME280;7902;49.042;9.092;2022-09-09T14:53:50;98683.81;;;24.25;48.04
15604;BME280;7902;49.042;9.092;2022-09-09T14:56:19;98698.47;;;24.29;47.22
15604;BME280;7902;49.042;9.092;2022-09-09T14:58:45;98705.50;;;24.23;47.87
15604;BME280;7902;49.042;9.092;2022-09-09T15:01:22;98707.53;;;24.08;50.65
15604;BME280;7902;49.042;9.092;2022-09-09T15:07:09;98695.59;;;24.24;52.25
15604;BME280;7902;49.042;9.092;2022-09-09T15:09:36;98693.94;;;24.16;52.57
15604;BME280;7902;49.042;9.092;2022-09-09T15:12:02;98690.22;;;24.11;53.10
15604;BME280;7902;49.042;9.092;2022-09-09T15:14:30;98698.44;;;24.02;53.44
15604;BME280;7902;49.042;9.092;2022-09-09T15:16:56;98698.66;;;24.08;53.03
15604;BME280;7902;49.042;9.092;2022-09-09T15:19:22;98696.16;;;24.13;53.25
15604;BME280;7902;49.042;9.092;2022-09-09T15:21:48;98696.59;;;24.10;52.80
15604;BME280;7902;49.042;9.092;2022-09-09T15:24:14;98699.66;;;24.06;52.93